Time;durP1;ratioP1;P1;durP2;ratioP2;P2;SDS_P1;SDS_P2;PMS_P1;PMS_P2;Temp;Humidity;BMP_temperature;BMP_pressure;BME280_temperature;BME280_humidity;BME280_pressure;Samples;Min_cycle;Max_cycle;Signal;HPM_P1;HPM_P2
2022/03/20 00:03:30;;;;;;;20.35;12.45;;;4.50;99.90;;;;;;12428113;28;23304;-80
2022/03/20 00:09:32;;;;;;;21.23;12.23;;;4.50;99.90;;;;;;12428381;28;20104;-81
2022/03/20 00:15:40;;;;;;;20.77;12.13;;;4.40;99.90;;;;;;12427596;28;20050;-81
2022/03/20 00:21:43;;;;;;;22.73;11.95;;;4.40;99.90;;;;;;12432381;28;20049;-80
2022/03/20 00:27:45;;;;;;;21.55;12.57;;;4.40;99.90;;;;;;12422626;28;20049;-80
2022/03/20 00:33:47;;;;;;;20.05;11.85;;;4.20;99.90;;;;;;12428318;28;20057;-81
2022/03/20 00:39:49;;;;;;;21.10;12.77;;;4.20;99.90;;;;;;12434092;28;20065;-79
2022/03/20 00:45:51;;;;;;;20.63;12.10;;;4.10;99.90;;;;;;12429824;28;20042;-81
2022/03/20 00:51:56;;;;;;;22.63;11.98;;;4.10;99.90;;;;;;12427964;28;20061;-79
2022/03/20 00:57:58;;;;;;;19.23;12.15;;;4.10;99.90;;;;;;12425867;28;20049;-80
2022/03/20 01:04:00;;;;;;;20.50;12.50;;;4.10;99.90;;;;;;12424045;28;20065;-81
2022/03/20 01:10:04;;;;;;;22.33;11.85;;;4.10;99.90;;;;;;12428227;28;20049;-80
2022/03/20 01:16:06;;;;;;;20.52;11.20;;;4.00;99.90;;;;;;12445509;28;20081;-80
2022/03/20 01:22:09;;;;;;;20.10;11.55;;;4.00;99.90;;;;;;12459964;28;20049;-80
2022/03/20 01:28:10;;;;;;;18.88;11.10;;;3.90;99.90;;;;;;12442421;28;20136;-80
2022/03/20 01:34:12;;;;;;;18.20;10.63;;;3.70;99.90;;;;;;12435386;28;20041;-81
2022/03/20 01:40:14;;;;;;;20.48;11.77;;;3.70;99.90;;;;;;12437459;28;20063;-79
2022/03/20 01:46:16;;;;;;;19.00;11.38;;;3.70;99.90;;;;;;12435256;28;20100;-80
2022/03/20 01:52:25;;;;;;;21.58;11.38;;;3.60;99.90;;;;;;12435364;28;20054;-80
2022/03/20 01:58:27;;;;;;;19.58;10.50;;;3.60;99.90;;;;;;12436106;28;20053;-79
2022/03/20 02:04:30;;;;;;;18.45;10.23;;;3.40;99.90;;;;;;12432324;28;20049;-81
2022/03/20 02:10:36;;;;;;;19.60;11.50;;;3.30;99.90;;;;;;12437125;28;20119;-80
2022/03/20 02:16:38;;;;;;;22.58;11.98;;;3.40;99.90;;;;;;12434341;28;20091;-80
2022/03/20 02:22:43;;;;;;;19.13;11.30;;;3.40;99.90;;;;;;12451306;28;20056;-81
2022/03/20 02:28:45;;;;;;;18.17;10.95;;;3.30;99.90;;;;;;12444685;28;20526;-80
2022/03/20 02:34:48;;;;;;;23.52;11.77;;;3.30;99.90;;;;;;12438379;28;20630;-80
2022/03/20 02:40:54;;;;;;;19.58;11.10;;;3.30;99.90;;;;;;12426172;28;20064;-80
2022/03/20 02:47:02;;;;;;;23.10;10.50;;;3.20;99.90;;;;;;12430607;28;20049;-80
2022/03/20 02:53:14;;;;;;;18.48;11.13;;;3.20;99.90;;;;;;12431431;28;20072;-81
2022/03/20 02:59:16;;;;;;;19.92;10.90;;;3.10;99.90;;;;;;12439483;28;20084;-81
2022/03/20 03:05:19;;;;;;;25.15;11.63;;;3.10;99.90;;;;;;12430450;28;20052;-81
2022/03/20 03:11:21;;;;;;;21.25;11.55;;;3.10;99.90;;;;;;12435721;28;20564;-80
2022/03/20 03:17:27;;;;;;;19.60;11.50;;;3.10;99.90;;;;;;12429410;28;20124;-80
2022/03/20 03:23:30;;;;;;;18.83;11.10;;;3.20;99.90;;;;;;12430680;28;20705;-81
2022/03/20 03:29:32;;;;;;;21.67;12.05;;;3.10;99.90;;;;;;12433063;28;20054;-79
2022/03/20 03:35:47;;;;;;;22.13;11.55;;;3.10;99.90;;;;;;12427812;28;20128;-81
2022/03/20 03:41:51;;;;;;;22.20;11.80;;;3.20;99.90;;;;;;12429633;28;20072;-81
2022/03/20 03:47:53;;;;;;;21.63;11.73;;;3.10;99.90;;;;;;12440554;28;20050;-82
2022/03/20 03:53:54;;;;;;;19.73;11.57;;;3.00;99.90;;;;;;12438449;28;20046;-80
2022/03/20 03:59:56;;;;;;;19.13;11.20;;;3.00;99.90;;;;;;12433508;28;20716;-81
2022/03/20 04:06:04;;;;;;;22.55;11.68;;;3.00;99.90;;;;;;12454625;28;20120;-81
2022/03/20 04:12:06;;;;;;;23.23;12.20;;;2.80;99.90;;;;;;12446832;28;20045;-79
2022/03/20 04:18:08;;;;;;;18.95;11.35;;;2.80;99.90;;;;;;12432083;28;20136;-80
2022/03/20 04:24:10;;;;;;;19.08;11.45;;;2.80;99.90;;;;;;12430522;28;20176;-81
2022/03/20 04:30:12;;;;;;;22.30;11.73;;;2.70;99.90;;;;;;12430980;28;20049;-80
2022/03/20 04:36:15;;;;;;;23.42;12.02;;;2.70;99.90;;;;;;12427390;28;20055;-79
2022/03/20 04:42:17;;;;;;;21.00;11.93;;;2.70;99.90;;;;;;12430252;28;20156;-79
2022/03/20 05:01:00;;;;;;;20.95;11.43;;;2.70;99.90;;;;;;12425257;28;20041;-80
2022/03/20 05:07:04;;;;;;;20.95;11.55;;;2.60;99.90;;;;;;12424849;28;20056;-80
2022/03/20 05:13:21;;;;;;;23.40;12.40;;;2.50;99.90;;;;;;12427887;28;20168;-79
2022/03/20 05:19:23;;;;;;;24.58;11.82;;;2.60;99.90;;;;;;12433949;28;20068;-81
2022/03/20 05:25:28;;;;;;;21.90;11.82;;;2.50;99.90;;;;;;12439399;28;20050;-80
2022/03/20 05:31:30;;;;;;;;;;;2.50;99.90;;;;;;12458134;28;20374;-81
2022/03/20 05:37:32;;;;;;;20.50;12.25;;;2.50;99.90;;;;;;12445673;28;20059;-80
2022/03/20 05:43:34;;;;;;;24.63;12.95;;;2.60;99.90;;;;;;12424211;28;20403;-81
2022/03/20 05:49:36;;;;;;;28.38;13.15;;;2.60;99.90;;;;;;12427435;28;20089;-81
2022/03/20 06:02:00;;;;;;;23.23;12.70;;;2.70;99.90;;;;;;12405915;28;20088;-80
2022/03/20 06:08:02;;;;;;;20.70;12.13;;;2.90;99.90;;;;;;12434177;28;20049;-81
2022/03/20 06:14:04;;;;;;;23.30;12.77;;;2.80;99.90;;;;;;12437458;28;20062;-80
2022/03/20 06:20:08;;;;;;;27.65;12.25;;;2.80;99.90;;;;;;12435444;28;20073;-80
2022/03/20 06:26:11;;;;;;;21.90;11.47;;;2.80;99.90;;;;;;12437202;28;20068;-79
2022/03/20 06:32:14;;;;;;;24.90;12.85;;;2.90;99.90;;;;;;12436119;28;20173;-80
2022/03/20 06:38:16;;;;;;;22.02;12.15;;;3.00;99.90;;;;;;12448113;28;20057;-81
2022/03/20 06:44:18;;;;;;;22.00;12.75;;;3.00;99.90;;;;;;12455516;28;20053;-80
2022/03/20 06:50:20;;;;;;;20.10;11.95;;;3.10;99.90;;;;;;12440448;28;20120;-82
2022/03/20 06:56:22;;;;;;;21.17;11.70;;;3.20;99.90;;;;;;12437889;28;20505;-80
2022/03/20 07:02:24;;;;;;;22.42;12.48;;;3.30;99.90;;;;;;12431119;28;20341;-81
2022/03/20 07:08:26;;;;;;;25.35;12.18;;;3.40;99.90;;;;;;12434263;28;20049;-81
2022/03/20 07:14:27;;;;;;;19.98;12.07;;;3.50;99.90;;;;;;12434681;28;20643;-82
2022/03/20 07:20:29;;;;;;;23.17;12.30;;;3.50;99.90;;;;;;12427974;28;20687;-81
2022/03/20 07:32:51;;;;;;;20.83;12.23;;;3.70;99.90;;;;;;12429925;28;20148;-80
2022/03/20 07:38:53;;;;;;;23.52;13.63;;;3.80;99.90;;;;;;12431434;28;20133;-82
2022/03/20 07:44:55;;;;;;;24.10;13.82;;;3.80;99.90;;;;;;12438843;28;20720;-82
2022/03/20 07:50:58;;;;;;;25.17;13.13;;;4.10;99.90;;;;;;12437070;28;20046;-82
2022/03/20 07:57:00;;;;;;;27.80;13.52;;;4.30;99.90;;;;;;12438784;28;20061;-80
2022/03/20 08:03:02;;;;;;;26.10;14.25;;;4.50;99.90;;;;;;12433579;28;20046;-82
2022/03/20 08:09:05;;;;;;;21.00;13.05;;;4.90;99.90;;;;;;12436514;28;20072;-81
2022/03/20 08:15:09;;;;;;;22.58;13.30;;;5.00;99.90;;;;;;12454567;28;20545;-82
2022/03/20 08:21:14;;;;;;;23.65;13.38;;;5.20;99.90;;;;;;12440566;28;20066;-81
2022/03/20 08:27:16;;;;;;;24.17;13.13;;;5.40;99.90;;;;;;12425542;28;20168;-81
2022/03/20 08:33:18;;;;;;;22.55;13.88;;;5.70;99.90;;;;;;12428873;28;20489;-82
2022/03/20 08:39:21;;;;;;;24.13;13.82;;;5.60;99.90;;;;;;12430359;28;20060;-81
2022/03/20 08:45:29;;;;;;;22.02;13.43;;;5.80;99.90;;;;;;12429131;28;20095;-81
2022/03/20 08:51:32;;;;;;;25.20;14.50;;;6.10;99.90;;;;;;12429367;28;20110;-82
2022/03/20 08:57:34;;;;;;;25.08;14.43;;;6.50;99.90;;;;;;12446301;28;20049;-82
2022/03/20 09:03:36;;;;;;;26.88;15.05;;;6.60;99.90;;;;;;12427174;28;20502;-81
2022/03/20 09:09:38;;;;;;;26.42;15.32;;;6.80;99.90;;;;;;12432661;28;20068;-82
2022/03/20 09:15:40;;;;;;;25.20;14.18;;;7.00;99.90;;;;;;12426539;28;20069;-80
2022/03/20 09:21:42;;;;;;;26.40;15.90;;;7.10;99.90;;;;;;12431949;28;20042;-82
2022/03/20 09:27:48;;;;;;;25.67;13.82;;;7.50;99.90;;;;;;12444581;28;20045;-83
2022/03/20 09:33:50;;;;;;;22.67;15.13;;;7.60;99.90;;;;;;12435896;28;20128;-82
2022/03/20 09:39:51;;;;;;;27.48;15.02;;;7.90;99.90;;;;;;12441755;28;20057;-82
2022/03/20 09:45:55;;;;;;;24.17;15.00;;;8.20;99.90;;;;;;12443191;28;20133;-82
2022/03/20 09:51:57;;;;;;;24.70;14.82;;;8.40;99.90;;;;;;12439286;28;20046;-82
2022/03/20 09:57:59;;;;;;;25.15;15.50;;;8.50;99.90;;;;;;12439577;28;20049;-82
2022/03/20 10:04:10;;;;;;;22.40;14.38;;;8.70;99.90;;;;;;12443972;28;20137;-81
2022/03/20 10:10:22;;;;;;;21.58;13.95;;;8.90;99.90;;;;;;12443881;28;20057;-82
2022/03/20 10:16:24;;;;;;;23.98;14.43;;;9.00;99.90;;;;;;12437962;28;20045;-82
2022/03/20 10:22:32;;;;;;;25.25;14.88;;;9.30;99.90;;;;;;12435766;28;20052;-83
2022/03/20 10:28:41;;;;;;;21.90;14.30;;;9.50;99.90;;;;;;12434342;28;20049;-85
2022/03/20 10:34:57;;;;;;;23.90;14.80;;;9.80;99.90;;;;;;12436590;28;20111;-82
2022/03/20 10:40:58;;;;;;;26.27;14.77;;;10.20;99.90;;;;;;12433302;28;20510;-85
2022/03/20 10:47:05;;;;;;;21.88;14.35;;;10.20;99.90;;;;;;12432290;28;20085;-81
2022/03/20 10:53:07;;;;;;;23.20;14.27;;;10.40;99.90;;;;;;12451558;28;20060;-82
2022/03/20 10:59:15;;;;;;;22.50;14.25;;;10.40;99.90;;;;;;12433125;28;20046;-82
2022/03/20 11:05:17;;;;;;;27.38;14.77;;;10.60;99.90;;;;;;12434305;28;20128;-81
2022/03/20 11:11:20;;;;;;;20.90;13.13;;;10.80;99.90;;;;;;12434406;28;20053;-82
2022/03/20 11:17:36;;;;;;;22.17;13.57;;;11.00;99.90;;;;;;12437523;28;20174;-81
2022/03/20 11:23:40;;;;;;;22.65;14.05;;;11.00;99.90;;;;;;12449776;28;20510;-83
2022/03/20 11:29:50;;;;;;;20.90;13.37;;;11.20;99.90;;;;;;12443530;28;20083;-83
2022/03/20 11:35:52;;;;;;;21.45;13.40;;;11.20;99.90;;;;;;12446177;28;20132;-81
2022/03/20 11:42:19;;;;;;;23.45;14.32;;;11.30;99.90;;;;;;12432928;28;20414;-83
2022/03/20 11:48:21;;;;;;;19.55;13.30;;;11.30;99.90;;;;;;12437315;28;20060;-83
2022/03/20 11:54:49;;;;;;;20.30;12.90;;;11.40;99.90;;;;;;12434083;28;20052;-83
2022/03/20 12:01:02;;;;;;;21.98;14.52;;;11.70;99.90;;;;;;12434355;28;20382;-82
2022/03/20 12:07:19;;;;;;;19.35;13.18;;;11.90;99.90;;;;;;12435481;28;20045;-83
2022/03/20 12:13:39;;;;;;;20.23;13.43;;;12.10;99.90;;;;;;12436115;28;20046;-81
2022/03/20 12:19:48;;;;;;;19.80;13.57;;;12.00;99.90;;;;;;12430639;28;20077;-84
2022/03/20 12:25:50;;;;;;;20.83;14.13;;;12.30;99.90;;;;;;12441499;28;20520;-82
2022/03/20 12:31:57;;;;;;;22.50;14.68;;;12.40;99.90;;;;;;12428313;28;20058;-84
2022/03/20 12:37:59;;;;;;;20.90;14.05;;;12.30;99.90;;;;;;12431970;28;20069;-83
2022/03/20 12:44:07;;;;;;;19.50;13.77;;;12.30;99.90;;;;;;12427479;28;20045;-82
2022/03/20 12:50:11;;;;;;;22.40;14.30;;;12.50;99.90;;;;;;12434740;28;20157;-82
2022/03/20 12:56:22;;;;;;;23.88;14.07;;;12.40;99.90;;;;;;12449638;28;20064;-82
2022/03/20 13:02:24;;;;;;;22.73;14.50;;;12.60;99.90;;;;;;12447312;28;20069;-82
2022/03/20 13:08:32;;;;;;;24.45;14.57;;;12.60;99.90;;;;;;12464998;28;20060;-83
2022/03/20 13:14:48;;;;;;;20.52;14.13;;;12.80;99.90;;;;;;12462131;28;20114;-84
2022/03/20 13:20:50;;;;;;;22.90;14.23;;;12.90;99.90;;;;;;12453755;28;20487;-84
2022/03/20 13:27:00;;;;;;;21.83;14.40;;;12.80;99.90;;;;;;12443171;28;20084;-84
2022/03/20 13:33:03;;;;;;;21.67;14.32;;;12.80;99.90;;;;;;12441440;28;20053;-82
2022/03/20 13:39:12;;;;;;;20.63;14.80;;;12.70;99.90;;;;;;12444928;28;20107;-83
2022/03/20 13:45:14;;;;;;;19.90;14.20;;;12.60;99.90;;;;;;12442918;28;20052;-84
2022/03/20 13:51:21;;;;;;;21.42;14.60;;;12.60;99.90;;;;;;12445372;28;20095;-83
2022/03/20 13:57:24;;;;;;;21.95;15.00;;;12.80;99.90;;;;;;12444670;28;20099;-84
2022/03/20 14:03:27;;;;;;;23.33;14.15;;;13.00;99.90;;;;;;12451015;28;20057;-84
2022/03/20 14:09:32;;;;;;;20.73;13.68;;;13.00;99.90;;;;;;12449596;28;20049;-84
2022/03/20 14:15:36;;;;;;;19.77;13.80;;;13.00;99.90;;;;;;12445798;28;20050;-83
2022/03/20 14:21:38;;;;;;;;;;;13.00;99.90;;;;;;12441958;28;20052;-82
2022/03/20 14:27:40;;;;;;;20.38;14.73;;;13.00;99.90;;;;;;12438344;28;20024;-83
2022/03/20 14:40:14;;;;;;;22.33;14.25;;;13.10;99.90;;;;;;12437303;28;20061;-84
2022/03/20 14:46:18;;;;;;;21.63;14.82;;;13.20;99.90;;;;;;12467484;28;20054;-84
2022/03/20 14:52:20;;;;;;;22.58;15.00;;;13.10;99.90;;;;;;12446193;28;20336;-83
2022/03/20 14:58:23;;;;;;;24.65;14.63;;;13.20;99.90;;;;;;12435945;28;20136;-84
2022/03/20 15:04:25;;;;;;;19.42;13.55;;;13.20;99.90;;;;;;12433942;28;20133;-83
2022/03/20 15:16:49;;;;;;;21.55;13.32;;;13.20;99.90;;;;;;12439793;28;20136;-84
2022/03/20 15:22:51;;;;;;;20.23;14.18;;;13.10;99.90;;;;;;12433551;28;20106;-84
2022/03/20 15:28:55;;;;;;;20.83;13.70;;;13.20;99.90;;;;;;12434839;28;20057;-82
2022/03/20 15:34:57;;;;;;;20.08;13.88;;;13.10;99.90;;;;;;12436606;28;20046;-82
2022/03/20 15:40:59;;;;;;;19.08;12.38;;;13.10;99.90;;;;;;12425537;28;20886;-82
2022/03/20 15:47:01;;;;;;;21.05;13.10;;;13.00;99.90;;;;;;12428040;28;20045;-82
2022/03/20 15:53:04;;;;;;;19.55;13.15;;;13.10;99.90;;;;;;12431643;28;20054;-83
2022/03/20 15:59:19;;;;;;;18.58;12.80;;;13.00;99.90;;;;;;12436482;28;20088;-82
2022/03/20 16:05:21;;;;;;;20.23;13.05;;;13.00;99.90;;;;;;12447776;28;20095;-82
2022/03/20 16:11:23;;;;;;;19.20;12.52;;;13.00;99.90;;;;;;12449363;28;20092;-83
2022/03/20 16:17:25;;;;;;;19.98;12.48;;;13.00;99.90;;;;;;12433664;28;20168;-84
2022/03/20 16:29:47;;;;;;;19.50;12.68;;;13.00;99.90;;;;;;12432204;28;20049;-84
2022/03/20 16:35:49;;;;;;;15.98;11.38;;;12.80;99.90;;;;;;12430674;28;20045;-84
2022/03/20 16:41:52;;;;;;;18.13;12.27;;;12.60;99.90;;;;;;12428274;28;20602;-84
2022/03/20 16:47:55;;;;;;;20.38;12.65;;;12.60;99.90;;;;;;12433553;28;20085;-82
2022/03/20 16:53:56;;;;;;;17.90;12.02;;;12.30;99.90;;;;;;12427586;28;20057;-82
2022/03/20 16:59:58;;;;;;;20.05;12.80;;;12.20;99.90;;;;;;12429765;28;20124;-84
2022/03/20 17:06:01;;;;;;;23.05;12.68;;;12.20;99.90;;;;;;12433185;28;20546;-83
2022/03/20 17:12:03;;;;;;;20.45;13.13;;;12.20;99.90;;;;;;12429661;28;20049;-83
2022/03/20 17:18:09;;;;;;;20.92;13.50;;;12.20;99.90;;;;;;12427625;28;20103;-82
2022/03/20 17:24:11;;;;;;;20.85;13.15;;;12.20;99.90;;;;;;12429032;28;20053;-83
2022/03/20 17:30:13;;;;;;;21.20;12.52;;;12.20;99.90;;;;;;12444527;28;20110;-82
2022/03/20 17:36:15;;;;;;;18.98;12.13;;;12.30;99.90;;;;;;12432789;28;20077;-84
2022/03/20 17:42:20;;;;;;;21.80;13.43;;;12.10;99.90;;;;;;12430558;28;20749;-82
2022/03/20 17:48:33;;;;;;;19.83;13.25;;;12.10;99.90;;;;;;12432284;28;20052;-82
2022/03/20 17:54:37;;;;;;;22.02;14.65;;;11.90;99.90;;;;;;12436163;28;20148;-83
2022/03/20 18:00:40;;;;;;;17.70;11.93;;;11.90;99.90;;;;;;12437350;28;20081;-82
2022/03/20 18:13:04;;;;;;;21.08;11.50;;;11.80;99.90;;;;;;12439588;28;20107;-81
2022/03/20 18:19:07;;;;;;;18.30;11.27;;;11.80;99.90;;;;;;12435000;28;20073;-83
2022/03/20 18:25:12;;;;;;;18.30;12.10;;;11.80;99.90;;;;;;12431940;28;20063;-83
2022/03/20 18:31:13;;;;;;;16.45;11.55;;;11.80;99.90;;;;;;12441338;28;20088;-83
2022/03/20 18:37:15;;;;;;;15.38;10.27;;;11.60;99.90;;;;;;12440270;28;20057;-83
2022/03/20 18:43:18;;;;;;;16.10;11.20;;;11.60;99.90;;;;;;12446479;28;20042;-82
2022/03/20 18:49:19;;;;;;;16.75;10.52;;;11.60;99.90;;;;;;12438005;28;20047;-83
2022/03/20 18:55:25;;;;;;;15.40;10.70;;;11.60;99.90;;;;;;12437201;28;20145;-82
2022/03/20 19:01:27;;;;;;;15.85;9.93;;;11.50;99.90;;;;;;12432732;28;20092;-83
2022/03/20 19:07:29;;;;;;;16.92;10.05;;;11.50;99.90;;;;;;12435325;28;20050;-82
2022/03/20 19:13:31;;;;;;;14.13;9.30;;;11.40;99.90;;;;;;12436621;28;20058;-82
2022/03/20 19:19:34;;;;;;;15.18;10.82;;;11.40;99.90;;;;;;12435871;28;20057;-84
2022/03/20 19:25:36;;;;;;;15.80;9.30;;;11.30;99.90;;;;;;12436131;28;20077;-83
2022/03/20 19:31:38;;;;;;;13.73;9.38;;;11.30;99.90;;;;;;12437438;28;20578;-82
2022/03/20 19:44:01;;;;;;;13.63;9.52;;;11.20;99.90;;;;;;12436615;28;20487;-82
2022/03/20 19:50:07;;;;;;;13.77;9.02;;;11.20;99.90;;;;;;12451980;28;20053;-83
2022/03/20 19:56:10;;;;;;;15.10;8.55;;;11.20;99.90;;;;;;12443247;28;20549;-84
2022/03/20 20:02:13;;;;;;;13.55;9.23;;;11.30;99.90;;;;;;12439105;28;20132;-83
2022/03/20 20:08:16;;;;;;;12.93;8.73;;;11.30;99.90;;;;;;12450920;28;20053;-82
2022/03/20 20:20:41;;;;;;;12.68;7.72;;;11.10;99.90;;;;;;12432296;28;20083;-82
2022/03/20 20:26:43;;;;;;;13.15;8.32;;;11.10;99.90;;;;;;12428198;28;20054;-81
2022/03/20 20:32:45;;;;;;;13.05;8.50;;;11.10;99.90;;;;;;12424304;28;20063;-82
2022/03/20 20:38:47;;;;;;;13.00;8.15;;;11.00;99.90;;;;;;12433809;28;20083;-83
2022/03/20 20:44:49;;;;;;;17.52;8.98;;;10.90;99.90;;;;;;12433051;28;20099;-83
2022/03/20 20:50:52;;;;;;;12.23;8.10;;;11.00;99.90;;;;;;12431177;28;20461;-83
2022/03/20 20:56:56;;;;;;;13.57;8.52;;;10.70;99.90;;;;;;12425033;28;20100;-83
2022/03/20 21:02:57;;;;;;;12.25;7.97;;;10.80;99.90;;;;;;12437807;28;20141;-83
2022/03/20 21:15:22;;;;;;;15.35;8.95;;;10.60;99.90;;;;;;12427267;28;20128;-81
2022/03/20 21:21:23;;;;;;;16.40;8.80;;;10.60;99.90;;;;;;12432197;28;20164;-83
2022/03/20 21:27:25;;;;;;;12.73;8.85;;;10.60;99.90;;;;;;12434160;28;20050;-82
2022/03/20 21:33:27;;;;;;;15.25;8.73;;;10.50;99.90;;;;;;12442472;28;20489;-82
2022/03/20 21:39:30;;;;;;;11.65;8.38;;;10.40;99.90;;;;;;12443771;28;20510;-82
2022/03/20 21:45:36;;;;;;;12.93;8.43;;;10.50;99.90;;;;;;12459850;28;20136;-82
2022/03/20 21:51:38;;;;;;;12.18;8.55;;;10.50;99.90;;;;;;12444333;28;20069;-82
2022/03/20 21:57:40;;;;;;;14.30;8.80;;;10.40;99.90;;;;;;12436890;28;20532;-81
2022/03/20 22:03:42;;;;;;;12.65;8.52;;;10.20;99.90;;;;;;12438283;28;20079;-81
2022/03/20 22:09:47;;;;;;;13.25;7.82;;;10.00;99.90;;;;;;12439759;28;20045;-81
2022/03/20 22:15:49;;;;;;;16.20;8.63;;;9.90;99.90;;;;;;12443667;28;20454;-82
2022/03/20 22:21:51;;;;;;;14.50;8.63;;;9.80;99.90;;;;;;12429876;28;20124;-82
2022/03/20 22:27:53;;;;;;;11.45;7.60;;;9.80;99.90;;;;;;12435887;28;20470;-82
2022/03/20 22:33:55;;;;;;;12.77;8.38;;;9.60;99.90;;;;;;12434483;28;20520;-82
2022/03/20 22:39:57;;;;;;;12.25;8.25;;;9.60;99.90;;;;;;12435293;28;20071;-83
2022/03/20 22:45:59;;;;;;;12.25;7.50;;;9.70;99.90;;;;;;12440725;28;20124;-82
2022/03/20 22:52:01;;;;;;;14.88;8.13;;;9.70;99.90;;;;;;12453923;28;20050;-82
2022/03/20 22:58:09;;;;;;;12.68;8.35;;;9.70;99.90;;;;;;12438919;28;20498;-82
2022/03/20 23:04:11;;;;;;;12.48;7.78;;;9.80;99.90;;;;;;12436175;28;20053;-81
2022/03/20 23:10:13;;;;;;;12.05;8.02;;;9.90;99.90;;;;;;12442368;28;20059;-82
2022/03/20 23:16:15;;;;;;;12.68;8.00;;;9.80;99.90;;;;;;12441764;28;20064;-81
2022/03/20 23:22:17;;;;;;;12.23;7.70;;;10.00;99.90;;;;;;12464448;28;20058;-82
2022/03/20 23:28:20;;;;;;;13.85;7.80;;;9.90;99.90;;;;;;12443925;28;20183;-82
2022/03/20 23:34:22;;;;;;;16.35;8.38;;;9.80;99.90;;;;;;12434040;28;20141;-82
2022/03/20 23:40:24;;;;;;;13.10;8.48;;;9.80;99.90;;;;;;12433782;28;20548;-82
2022/03/20 23:46:28;;;;;;;11.75;7.53;;;9.90;99.90;;;;;;12436897;28;20061;-81
2022/03/20 23:52:30;;;;;;;12.45;7.45;;;9.80;99.90;;;;;;12428978;28;20100;-81
2022/03/20 23:58:34;;;;;;;13.90;8.50;;;9.60;99.90;;;;;;12436259;28;20061;-82
